sensor_id;sensor_type;location;lat;lon;timestamp;temperature;humidity
37788;DHT22;23627;53.302;-6.362;2023-01-20T00:01:48;2.20;99.90
37788;DHT22;23627;53.302;-6.362;2023-01-20T00:04:14;2.20;99.90
37788;DHT22;23627;53.302;-6.362;2023-01-20T00:06:43;2.20;99.90
37788;DHT22;23627;53.302;-6.362;2023-01-20T00:09:11;2.20;99.90
37788;DHT22;23627;53.302;-6.362;2023-01-20T00:11:38;2.20;99.90
37788;DHT22;23627;53.302;-6.362;2023-01-20T00:14:03;2.20;99.90
37788;DHT22;23627;53.302;-6.362;2023-01-20T00:16:29;2.20;99.90
37788;DHT22;23627;53.302;-6.362;2023-01-20T00:18:56;2.20;99.90
37788;DHT22;23627;53.302;-6.362;2023-01-20T00:21:22;2.20;99.90
37788;DHT22;23627;53.302;-6.362;2023-01-20T00:23:48;2.20;99.90
37788;DHT22;23627;53.302;-6.362;2023-01-20T00:26:15;2.20;99.90
37788;DHT22;23627;53.302;-6.362;2023-01-20T00:28:41;2.20;99.90
37788;DHT22;23627;53.302;-6.362;2023-01-20T00:31:11;2.10;99.90
37788;DHT22;23627;53.302;-6.362;2023-01-20T00:33:37;2.10;99.90
37788;DHT22;23627;53.302;-6.362;2023-01-20T00:36:02;2.10;99.90
37788;DHT22;23627;53.302;-6.362;2023-01-20T00:38:28;2.10;99.90
37788;DHT22;23627;53.302;-6.362;2023-01-20T00:40:53;2.10;99.90
37788;DHT22;23627;53.302;-6.362;2023-01-20T00:43:19;2.10;99.90
37788;DHT22;23627;53.302;-6.362;2023-01-20T00:45:45;2.10;99.90
37788;DHT22;23627;53.302;-6.362;2023-01-20T00:48:10;2.10;99.90
37788;DHT22;23627;53.302;-6.362;2023-01-20T00:50:36;2.10;99.90
37788;DHT22;23627;53.302;-6.362;2023-01-20T00:53:02;2.10;99.90
37788;DHT22;23627;53.302;-6.362;2023-01-20T00:55:27;2.10;99.90
37788;DHT22;23627;53.302;-6.362;2023-01-20T00:57:53;2.10;99.90
37788;DHT22;23627;53.302;-6.362;2023-01-20T01:00:19;2.10;99.90
37788;DHT22;23627;53.302;-6.362;2023-01-20T01:02:44;2.00;99.90
37788;DHT22;23627;53.302;-6.362;2023-01-20T01:05:10;2.10;99.90
37788;DHT22;23627;53.302;-6.362;2023-01-20T01:07:35;2.00;99.90
37788;DHT22;23627;53.302;-6.362;2023-01-20T01:10:01;2.00;99.90
37788;DHT22;23627;53.302;-6.362;2023-01-20T01:12:27;2.00;99.90
37788;DHT22;23627;53.302;-6.362;2023-01-20T01:14:52;2.00;99.90
37788;DHT22;23627;53.302;-6.362;2023-01-20T01:17:18;2.00;99.90
37788;DHT22;23627;53.302;-6.362;2023-01-20T01:19:43;2.00;99.90
37788;DHT22;23627;53.302;-6.362;2023-01-20T01:22:09;2.00;99.90
37788;DHT22;23627;53.302;-6.362;2023-01-20T01:24:34;2.00;99.90
37788;DHT22;23627;53.302;-6.362;2023-01-20T01:27:00;2.00;99.90
37788;DHT22;23627;53.302;-6.362;2023-01-20T01:29:26;2.00;99.90
37788;DHT22;23627;53.302;-6.362;2023-01-20T01:31:51;2.00;99.90
37788;DHT22;23627;53.302;-6.362;2023-01-20T01:34:17;2.00;99.90
37788;DHT22;23627;53.302;-6.362;2023-01-20T01:36:45;2.00;99.90
37788;DHT22;23627;53.302;-6.362;2023-01-20T01:39:11;2.00;99.90
37788;DHT22;23627;53.302;-6.362;2023-01-20T01:41:36;2.00;99.90
37788;DHT22;23627;53.302;-6.362;2023-01-20T01:44:03;2.00;99.90
37788;DHT22;23627;53.302;-6.362;2023-01-20T01:46:29;1.90;99.90
37788;DHT22;23627;53.302;-6.362;2023-01-20T01:48:55;2.00;99.90
37788;DHT22;23627;53.302;-6.362;2023-01-20T01:51:25;2.00;99.90
37788;DHT22;23627;53.302;-6.362;2023-01-20T01:53:53;1.90;99.90
37788;DHT22;23627;53.302;-6.362;2023-01-20T01:56:20;1.90;99.90
37788;DHT22;23627;53.302;-6.362;2023-01-20T01:58:47;1.90;99.90
37788;DHT22;23627;53.302;-6.362;2023-01-20T02:01:13;1.90;99.90
37788;DHT22;23627;53.302;-6.362;2023-01-20T02:06:14;1.90;99.90
37788;DHT22;23627;53.302;-6.362;2023-01-20T02:08:39;1.90;99.90
37788;DHT22;23627;53.302;-6.362;2023-01-20T02:11:08;1.90;99.90
37788;DHT22;23627;53.302;-6.362;2023-01-20T02:13:34;1.90;99.90
37788;DHT22;23627;53.302;-6.362;2023-01-20T02:16:04;1.90;99.90
37788;DHT22;23627;53.302;-6.362;2023-01-20T02:21:12;1.90;99.90
37788;DHT22;23627;53.302;-6.362;2023-01-20T02:23:53;1.90;99.90
37788;DHT22;23627;53.302;-6.362;2023-01-20T02:34:01;1.90;99.90
37788;DHT22;23627;53.302;-6.362;2023-01-20T02:36:33;1.90;99.90
37788;DHT22;23627;53.302;-6.362;2023-01-20T02:39:10;1.90;99.90
37788;DHT22;23627;53.302;-6.362;2023-01-20T02:41:39;1.90;99.90
37788;DHT22;23627;53.302;-6.362;2023-01-20T02:44:12;1.90;99.90
37788;DHT22;23627;53.302;-6.362;2023-01-20T02:46:47;1.90;99.90
37788;DHT22;23627;53.302;-6.362;2023-01-20T02:49:16;1.90;99.90
37788;DHT22;23627;53.302;-6.362;2023-01-20T02:51:53;1.90;99.90
37788;DHT22;23627;53.302;-6.362;2023-01-20T02:54:21;1.90;99.90
37788;DHT22;23627;53.302;-6.362;2023-01-20T02:56:48;1.90;99.90
37788;DHT22;23627;53.302;-6.362;2023-01-20T02:59:16;1.90;99.90
37788;DHT22;23627;53.302;-6.362;2023-01-20T03:01:49;1.80;99.90
37788;DHT22;23627;53.302;-6.362;2023-01-20T03:04:18;1.90;99.90
37788;DHT22;23627;53.302;-6.362;2023-01-20T03:06:48;1.80;99.90
37788;DHT22;23627;53.302;-6.362;2023-01-20T03:09:16;1.90;99.90
37788;DHT22;23627;53.302;-6.362;2023-01-20T03:11:44;1.90;99.90
37788;DHT22;23627;53.302;-6.362;2023-01-20T03:14:12;1.90;99.90
37788;DHT22;23627;53.302;-6.362;2023-01-20T03:16:38;1.90;99.90
37788;DHT22;23627;53.302;-6.362;2023-01-20T03:19:05;1.90;99.90
37788;DHT22;23627;53.302;-6.362;2023-01-20T03:21:31;1.90;99.90
37788;DHT22;23627;53.302;-6.362;2023-01-20T03:23:59;1.90;99.90
37788;DHT22;23627;53.302;-6.362;2023-01-20T03:26:25;1.90;99.90
37788;DHT22;23627;53.302;-6.362;2023-01-20T03:28:51;1.90;99.90
37788;DHT22;23627;53.302;-6.362;2023-01-20T03:33:48;1.90;99.90
37788;DHT22;23627;53.302;-6.362;2023-01-20T03:36:14;1.90;99.90
37788;DHT22;23627;53.302;-6.362;2023-01-20T03:38:41;1.90;99.90
37788;DHT22;23627;53.302;-6.362;2023-01-20T03:41:15;1.80;99.90
37788;DHT22;23627;53.302;-6.362;2023-01-20T03:43:43;1.90;99.90
37788;DHT22;23627;53.302;-6.362;2023-01-20T03:46:23;1.90;99.90
37788;DHT22;23627;53.302;-6.362;2023-01-20T03:48:58;1.90;99.90
37788;DHT22;23627;53.302;-6.362;2023-01-20T03:54:01;1.90;99.90
37788;DHT22;23627;53.302;-6.362;2023-01-20T03:56:36;1.80;99.90
37788;DHT22;23627;53.302;-6.362;2023-01-20T03:59:02;1.80;99.90
37788;DHT22;23627;53.302;-6.362;2023-01-20T04:01:31;1.80;99.90
37788;DHT22;23627;53.302;-6.362;2023-01-20T04:03:58;1.80;99.90
37788;DHT22;23627;53.302;-6.362;2023-01-20T04:06:25;1.90;99.90
37788;DHT22;23627;53.302;-6.362;2023-01-20T04:08:53;1.80;99.90
37788;DHT22;23627;53.302;-6.362;2023-01-20T04:11:19;1.80;99.90
37788;DHT22;23627;53.302;-6.362;2023-01-20T04:13:45;1.80;99.90
37788;DHT22;23627;53.302;-6.362;2023-01-20T04:16:12;1.90;99.90
37788;DHT22;23627;53.302;-6.362;2023-01-20T04:18:40;1.80;99.90
37788;DHT22;23627;53.302;-6.362;2023-01-20T04:21:06;1.80;99.90
37788;DHT22;23627;53.302;-6.362;2023-01-20T04:23:41;1.80;99.90
37788;DHT22;23627;53.302;-6.362;2023-01-20T04:26:08;1.80;99.90
37788;DHT22;23627;53.302;-6.362;2023-01-20T04:28:33;1.80;99.90
37788;DHT22;23627;53.302;-6.362;2023-01-20T04:30:59;1.80;99.90
37788;DHT22;23627;53.302;-6.362;2023-01-20T04:33:24;1.80;99.90
37788;DHT22;23627;53.302;-6.362;2023-01-20T04:35:50;1.80;99.90
37788;DHT22;23627;53.302;-6.362;2023-01-20T04:38:16;1.80;99.90
37788;DHT22;23627;53.302;-6.362;2023-01-20T04:40:41;1.80;99.90
37788;DHT22;23627;53.302;-6.362;2023-01-20T04:43:07;1.80;99.90
37788;DHT22;23627;53.302;-6.362;2023-01-20T04:45:34;1.80;99.90
37788;DHT22;23627;53.302;-6.362;2023-01-20T04:48:00;1.80;99.90
37788;DHT22;23627;53.302;-6.362;2023-01-20T04:50:25;1.80;99.90
37788;DHT22;23627;53.302;-6.362;2023-01-20T04:52:54;1.80;99.90
37788;DHT22;23627;53.302;-6.362;2023-01-20T04:55:20;1.80;99.90
37788;DHT22;23627;53.302;-6.362;2023-01-20T04:57:46;1.70;99.90
37788;DHT22;23627;53.302;-6.362;2023-01-20T05:00:12;1.70;99.90
37788;DHT22;23627;53.302;-6.362;2023-01-20T05:02:43;1.80;99.90
37788;DHT22;23627;53.302;-6.362;2023-01-20T05:05:08;1.80;99.90
37788;DHT22;23627;53.302;-6.362;2023-01-20T05:07:34;1.70;99.90
37788;DHT22;23627;53.302;-6.362;2023-01-20T05:10:02;1.80;99.90
37788;DHT22;23627;53.302;-6.362;2023-01-20T05:12:28;1.70;99.90
37788;DHT22;23627;53.302;-6.362;2023-01-20T05:14:53;1.70;99.90
37788;DHT22;23627;53.302;-6.362;2023-01-20T05:17:19;1.70;99.90
37788;DHT22;23627;53.302;-6.362;2023-01-20T05:19:45;1.70;99.90
37788;DHT22;23627;53.302;-6.362;2023-01-20T05:22:10;1.70;99.90
37788;DHT22;23627;53.302;-6.362;2023-01-20T05:24:36;1.70;99.90
37788;DHT22;23627;53.302;-6.362;2023-01-20T05:27:02;1.70;99.90
37788;DHT22;23627;53.302;-6.362;2023-01-20T05:29:27;1.70;99.90
37788;DHT22;23627;53.302;-6.362;2023-01-20T05:31:53;1.70;99.90
37788;DHT22;23627;53.302;-6.362;2023-01-20T05:34:19;1.70;99.90
37788;DHT22;23627;53.302;-6.362;2023-01-20T05:36:44;1.70;99.90
37788;DHT22;23627;53.302;-6.362;2023-01-20T05:39:10;1.70;99.90
37788;DHT22;23627;53.302;-6.362;2023-01-20T05:41:36;1.70;99.90
37788;DHT22;23627;53.302;-6.362;2023-01-20T05:44:01;1.70;99.90
37788;DHT22;23627;53.302;-6.362;2023-01-20T05:46:27;1.60;99.90
37788;DHT22;23627;53.302;-6.362;2023-01-20T05:48:53;1.60;99.90
37788;DHT22;23627;53.302;-6.362;2023-01-20T05:51:18;1.60;99.90
37788;DHT22;23627;53.302;-6.362;2023-01-20T05:53:44;1.60;99.90
37788;DHT22;23627;53.302;-6.362;2023-01-20T05:56:09;1.60;99.90
37788;DHT22;23627;53.302;-6.362;2023-01-20T05:58:40;1.60;99.90
37788;DHT22;23627;53.302;-6.362;2023-01-20T06:01:10;1.60;99.90
37788;DHT22;23627;53.302;-6.362;2023-01-20T06:03:36;1.50;99.90
37788;DHT22;23627;53.302;-6.362;2023-01-20T06:06:02;1.60;99.90
37788;DHT22;23627;53.302;-6.362;2023-01-20T06:08:28;1.50;99.90
37788;DHT22;23627;53.302;-6.362;2023-01-20T06:10:54;1.50;99.90
37788;DHT22;23627;53.302;-6.362;2023-01-20T06:13:20;1.50;99.90
37788;DHT22;23627;53.302;-6.362;2023-01-20T06:15:52;1.50;99.90
37788;DHT22;23627;53.302;-6.362;2023-01-20T06:18:18;1.50;99.90
37788;DHT22;23627;53.302;-6.362;2023-01-20T06:20:44;1.50;99.90
37788;DHT22;23627;53.302;-6.362;2023-01-20T06:23:09;1.50;99.90
37788;DHT22;23627;53.302;-6.362;2023-01-20T06:25:35;1.50;99.90
37788;DHT22;23627;53.302;-6.362;2023-01-20T06:28:00;1.50;99.90
37788;DHT22;23627;53.302;-6.362;2023-01-20T06:30:26;1.50;99.90
37788;DHT22;23627;53.302;-6.362;2023-01-20T06:32:52;1.50;99.90
37788;DHT22;23627;53.302;-6.362;2023-01-20T06:35:19;1.50;99.90
37788;DHT22;23627;53.302;-6.362;2023-01-20T06:37:44;1.40;99.90
37788;DHT22;23627;53.302;-6.362;2023-01-20T06:40:10;1.40;99.90
37788;DHT22;23627;53.302;-6.362;2023-01-20T06:42:36;1.40;99.90
37788;DHT22;23627;53.302;-6.362;2023-01-20T06:45:02;1.40;99.90
37788;DHT22;23627;53.302;-6.362;2023-01-20T06:47:27;1.40;99.90
37788;DHT22;23627;53.302;-6.362;2023-01-20T06:49:53;1.40;99.90
37788;DHT22;23627;53.302;-6.362;2023-01-20T06:52:18;1.40;99.90
37788;DHT22;23627;53.302;-6.362;2023-01-20T06:54:44;1.40;99.90
37788;DHT22;23627;53.302;-6.362;2023-01-20T06:57:10;1.40;99.90
37788;DHT22;23627;53.302;-6.362;2023-01-20T06:59:35;1.40;99.90
37788;DHT22;23627;53.302;-6.362;2023-01-20T07:02:01;1.40;99.90
37788;DHT22;23627;53.302;-6.362;2023-01-20T07:04:26;1.40;99.90
37788;DHT22;23627;53.302;-6.362;2023-01-20T07:06:52;1.40;99.90
37788;DHT22;23627;53.302;-6.362;2023-01-20T07:09:18;1.40;99.90
37788;DHT22;23627;53.302;-6.362;2023-01-20T07:11:46;1.40;99.90
37788;DHT22;23627;53.302;-6.362;2023-01-20T07:14:12;1.50;99.90
37788;DHT22;23627;53.302;-6.362;2023-01-20T07:16:37;1.50;99.90
37788;DHT22;23627;53.302;-6.362;2023-01-20T07:19:04;1.50;99.90
37788;DHT22;23627;53.302;-6.362;2023-01-20T07:21:29;1.50;99.90
37788;DHT22;23627;53.302;-6.362;2023-01-20T07:23:58;1.50;99.90
37788;DHT22;23627;53.302;-6.362;2023-01-20T07:26:24;1.50;99.90
37788;DHT22;23627;53.302;-6.362;2023-01-20T07:28:50;1.50;99.90
37788;DHT22;23627;53.302;-6.362;2023-01-20T07:31:32;1.60;99.90
37788;DHT22;23627;53.302;-6.362;2023-01-20T07:33:58;1.60;99.90
37788;DHT22;23627;53.302;-6.362;2023-01-20T07:36:24;1.60;99.90
37788;DHT22;23627;53.302;-6.362;2023-01-20T07:38:50;1.60;99.90
37788;DHT22;23627;53.302;-6.362;2023-01-20T07:41:16;1.60;99.90
37788;DHT22;23627;53.302;-6.362;2023-01-20T07:43:44;1.60;99.90
37788;DHT22;23627;53.302;-6.362;2023-01-20T07:46:10;1.60;99.90
37788;DHT22;23627;53.302;-6.362;2023-01-20T07:48:35;1.60;99.90
37788;DHT22;23627;53.302;-6.362;2023-01-20T07:51:02;1.70;99.90
37788;DHT22;23627;53.302;-6.362;2023-01-20T07:53:33;1.70;99.90
37788;DHT22;23627;53.302;-6.362;2023-01-20T07:56:00;1.70;99.90
37788;DHT22;23627;53.302;-6.362;2023-01-20T07:58:27;1.70;99.90
37788;DHT22;23627;53.302;-6.362;2023-01-20T08:00:53;1.70;99.90
37788;DHT22;23627;53.302;-6.362;2023-01-20T08:06:22;1.70;99.90
37788;DHT22;23627;53.302;-6.362;2023-01-20T08:11:32;1.70;99.90
37788;DHT22;23627;53.302;-6.362;2023-01-20T08:14:27;1.70;99.90
37788;DHT22;23627;53.302;-6.362;2023-01-20T08:16:53;1.70;99.90
37788;DHT22;23627;53.302;-6.362;2023-01-20T08:19:19;1.70;99.90
37788;DHT22;23627;53.302;-6.362;2023-01-20T08:21:57;1.70;99.90
37788;DHT22;23627;53.302;-6.362;2023-01-20T08:24:28;1.70;99.90
37788;DHT22;23627;53.302;-6.362;2023-01-20T08:26:53;1.70;99.90
37788;DHT22;23627;53.302;-6.362;2023-01-20T08:29:19;1.70;99.90
37788;DHT22;23627;53.302;-6.362;2023-01-20T08:31:47;1.70;99.90
37788;DHT22;23627;53.302;-6.362;2023-01-20T08:34:16;1.60;99.90
37788;DHT22;23627;53.302;-6.362;2023-01-20T08:36:43;1.60;99.90
37788;DHT22;23627;53.302;-6.362;2023-01-20T08:39:10;1.60;99.90
37788;DHT22;23627;53.302;-6.362;2023-01-20T08:41:37;1.60;99.90
37788;DHT22;23627;53.302;-6.362;2023-01-20T08:44:04;1.60;99.90
37788;DHT22;23627;53.302;-6.362;2023-01-20T08:46:36;1.70;99.90
37788;DHT22;23627;53.302;-6.362;2023-01-20T08:49:05;1.60;99.90
37788;DHT22;23627;53.302;-6.362;2023-01-20T08:54:19;1.70;99.90
37788;DHT22;23627;53.302;-6.362;2023-01-20T08:56:48;1.60;99.90
37788;DHT22;23627;53.302;-6.362;2023-01-20T08:59:14;1.50;99.90
37788;DHT22;23627;53.302;-6.362;2023-01-20T09:01:47;1.60;99.90
37788;DHT22;23627;53.302;-6.362;2023-01-20T09:04:12;1.70;99.90
37788;DHT22;23627;53.302;-6.362;2023-01-20T09:06:45;1.70;99.90
37788;DHT22;23627;53.302;-6.362;2023-01-20T09:09:12;1.70;99.90
37788;DHT22;23627;53.302;-6.362;2023-01-20T09:11:38;1.80;99.90
37788;DHT22;23627;53.302;-6.362;2023-01-20T09:14:04;1.80;99.90
37788;DHT22;23627;53.302;-6.362;2023-01-20T09:16:29;1.90;99.90
37788;DHT22;23627;53.302;-6.362;2023-01-20T09:18:58;1.90;99.90
37788;DHT22;23627;53.302;-6.362;2023-01-20T09:21:23;1.90;99.90
37788;DHT22;23627;53.302;-6.362;2023-01-20T09:23:49;2.00;99.90
37788;DHT22;23627;53.302;-6.362;2023-01-20T09:26:14;2.00;99.90
37788;DHT22;23627;53.302;-6.362;2023-01-20T09:28:40;2.00;99.90
37788;DHT22;23627;53.302;-6.362;2023-01-20T09:31:09;2.10;99.90
37788;DHT22;23627;53.302;-6.362;2023-01-20T09:33:36;2.10;99.90
37788;DHT22;23627;53.302;-6.362;2023-01-20T09:36:04;2.20;99.90
37788;DHT22;23627;53.302;-6.362;2023-01-20T09:38:30;2.20;99.90
37788;DHT22;23627;53.302;-6.362;2023-01-20T09:52:38;2.40;99.90
37788;DHT22;23627;53.302;-6.362;2023-01-20T09:55:31;2.40;99.90
37788;DHT22;23627;53.302;-6.362;2023-01-20T09:58:06;2.50;99.90
37788;DHT22;23627;53.302;-6.362;2023-01-20T10:00:37;2.50;99.90
37788;DHT22;23627;53.302;-6.362;2023-01-20T10:05:48;2.60;99.90
37788;DHT22;23627;53.302;-6.362;2023-01-20T10:08:23;2.50;99.90
37788;DHT22;23627;53.302;-6.362;2023-01-20T10:10:52;2.60;99.90
37788;DHT22;23627;53.302;-6.362;2023-01-20T10:15:53;2.60;99.90
37788;DHT22;23627;53.302;-6.362;2023-01-20T10:18:34;2.60;99.90
37788;DHT22;23627;53.302;-6.362;2023-01-20T10:21:18;2.60;99.90
37788;DHT22;23627;53.302;-6.362;2023-01-20T10:23:54;2.70;99.90
37788;DHT22;23627;53.302;-6.362;2023-01-20T10:26:29;2.70;99.90
37788;DHT22;23627;53.302;-6.362;2023-01-20T10:29:10;2.80;99.90
37788;DHT22;23627;53.302;-6.362;2023-01-20T10:31:45;2.80;99.90
37788;DHT22;23627;53.302;-6.362;2023-01-20T10:34:16;2.80;99.90
37788;DHT22;23627;53.302;-6.362;2023-01-20T10:36:43;2.80;99.90
37788;DHT22;23627;53.302;-6.362;2023-01-20T10:39:21;2.90;99.90
37788;DHT22;23627;53.302;-6.362;2023-01-20T10:42:02;2.90;99.90
37788;DHT22;23627;53.302;-6.362;2023-01-20T10:44:28;2.90;99.90
37788;DHT22;23627;53.302;-6.362;2023-01-20T10:57:27;3.10;99.90
37788;DHT22;23627;53.302;-6.362;2023-01-20T10:59:54;3.20;99.90
37788;DHT22;23627;53.302;-6.362;2023-01-20T11:02:27;3.20;99.90
37788;DHT22;23627;53.302;-6.362;2023-01-20T11:05:18;3.20;99.90
37788;DHT22;23627;53.302;-6.362;2023-01-20T11:07:51;3.20;99.90
37788;DHT22;23627;53.302;-6.362;2023-01-20T11:13:04;3.40;99.90
37788;DHT22;23627;53.302;-6.362;2023-01-20T11:15:36;3.40;99.90
37788;DHT22;23627;53.302;-6.362;2023-01-20T11:23:17;3.50;99.90
37788;DHT22;23627;53.302;-6.362;2023-01-20T11:25:51;3.50;99.90
37788;DHT22;23627;53.302;-6.362;2023-01-20T11:30:53;3.60;99.90
37788;DHT22;23627;53.302;-6.362;2023-01-20T11:33:21;3.70;99.90
37788;DHT22;23627;53.302;-6.362;2023-01-20T11:40:58;3.80;99.90
37788;DHT22;23627;53.302;-6.362;2023-01-20T11:43:29;3.80;99.90
37788;DHT22;23627;53.302;-6.362;2023-01-20T11:46:09;3.80;99.90
37788;DHT22;23627;53.302;-6.362;2023-01-20T11:48:35;3.90;99.90
37788;DHT22;23627;53.302;-6.362;2023-01-20T11:51:17;3.90;99.90
37788;DHT22;23627;53.302;-6.362;2023-01-20T11:53:43;4.00;99.90
37788;DHT22;23627;53.302;-6.362;2023-01-20T11:56:18;4.00;99.90
37788;DHT22;23627;53.302;-6.362;2023-01-20T11:58:49;4.10;99.90
37788;DHT22;23627;53.302;-6.362;2023-01-20T12:01:20;4.10;99.90
37788;DHT22;23627;53.302;-6.362;2023-01-20T12:06:25;4.30;99.90
37788;DHT22;23627;53.302;-6.362;2023-01-20T12:08:53;4.30;99.90
37788;DHT22;23627;53.302;-6.362;2023-01-20T12:11:25;4.40;99.90
37788;DHT22;23627;53.302;-6.362;2023-01-20T12:16:52;4.50;99.90
37788;DHT22;23627;53.302;-6.362;2023-01-20T12:19:19;4.60;99.90
37788;DHT22;23627;53.302;-6.362;2023-01-20T12:21:47;4.60;99.90
37788;DHT22;23627;53.302;-6.362;2023-01-20T12:24:25;4.70;99.90
37788;DHT22;23627;53.302;-6.362;2023-01-20T12:26:52;4.70;99.90
37788;DHT22;23627;53.302;-6.362;2023-01-20T12:29:23;4.70;99.90
37788;DHT22;23627;53.302;-6.362;2023-01-20T12:31:50;4.80;99.90
37788;DHT22;23627;53.302;-6.362;2023-01-20T12:34:24;4.80;99.90
37788;DHT22;23627;53.302;-6.362;2023-01-20T12:36:55;4.90;99.90
37788;DHT22;23627;53.302;-6.362;2023-01-20T12:57:03;5.20;99.90
37788;DHT22;23627;53.302;-6.362;2023-01-20T12:59:47;5.30;99.90
37788;DHT22;23627;53.302;-6.362;2023-01-20T13:10:11;5.40;99.90
37788;DHT22;23627;53.302;-6.362;2023-01-20T13:15:16;5.60;99.90
37788;DHT22;23627;53.302;-6.362;2023-01-20T13:20:21;5.70;99.90
37788;DHT22;23627;53.302;-6.362;2023-01-20T13:22:48;5.70;99.90
37788;DHT22;23627;53.302;-6.362;2023-01-20T13:25:14;5.70;99.90
37788;DHT22;23627;53.302;-6.362;2023-01-20T13:27:43;5.70;99.90
37788;DHT22;23627;53.302;-6.362;2023-01-20T13:30:36;5.80;99.90
37788;DHT22;23627;53.302;-6.362;2023-01-20T13:36:21;5.90;99.90
37788;DHT22;23627;53.302;-6.362;2023-01-20T13:39:32;5.90;99.90
37788;DHT22;23627;53.302;-6.362;2023-01-20T13:41:51;5.90;99.90
37788;DHT22;23627;53.302;-6.362;2023-01-20T13:46:58;6.00;99.90
37788;DHT22;23627;53.302;-6.362;2023-01-20T13:49:24;6.00;99.90
37788;DHT22;23627;53.302;-6.362;2023-01-20T13:51:51;6.00;99.90
37788;DHT22;23627;53.302;-6.362;2023-01-20T13:59:50;5.90;99.90
37788;DHT22;23627;53.302;-6.362;2023-01-20T14:08:30;5.90;99.90
37788;DHT22;23627;53.302;-6.362;2023-01-20T14:11:13;5.90;99.90
37788;DHT22;23627;53.302;-6.362;2023-01-20T14:13:39;5.80;99.90
37788;DHT22;23627;53.302;-6.362;2023-01-20T14:16:20;5.80;99.90
37788;DHT22;23627;53.302;-6.362;2023-01-20T14:22:24;5.80;99.90
37788;DHT22;23627;53.302;-6.362;2023-01-20T14:24:54;5.70;99.90
37788;DHT22;23627;53.302;-6.362;2023-01-20T14:27:45;5.70;99.90
37788;DHT22;23627;53.302;-6.362;2023-01-20T14:33:41;5.60;99.90
37788;DHT22;23627;53.302;-6.362;2023-01-20T14:48:25;5.50;99.90
37788;DHT22;23627;53.302;-6.362;2023-01-20T14:50:51;5.40;99.90
37788;DHT22;23627;53.302;-6.362;2023-01-20T14:55:58;5.40;99.90
37788;DHT22;23627;53.302;-6.362;2023-01-20T14:58:25;5.30;99.90
37788;DHT22;23627;53.302;-6.362;2023-01-20T15:00:51;5.30;99.90
37788;DHT22;23627;53.302;-6.362;2023-01-20T15:03:29;5.20;99.90
37788;DHT22;23627;53.302;-6.362;2023-01-20T15:05:58;5.20;99.90
37788;DHT22;23627;53.302;-6.362;2023-01-20T15:13:38;5.10;99.90
37788;DHT22;23627;53.302;-6.362;2023-01-20T15:18:35;5.10;99.90
37788;DHT22;23627;53.302;-6.362;2023-01-20T15:21:10;5.10;99.90
37788;DHT22;23627;53.302;-6.362;2023-01-20T15:23:36;5.00;99.90
37788;DHT22;23627;53.302;-6.362;2023-01-20T15:26:50;5.00;99.90
37788;DHT22;23627;53.302;-6.362;2023-01-20T15:31:32;5.00;99.90
37788;DHT22;23627;53.302;-6.362;2023-01-20T15:34:00;5.00;99.90
37788;DHT22;23627;53.302;-6.362;2023-01-20T15:36:27;5.00;99.90
37788;DHT22;23627;53.302;-6.362;2023-01-20T15:38:55;5.00;99.90
37788;DHT22;23627;53.302;-6.362;2023-01-20T15:41:21;5.00;99.90
37788;DHT22;23627;53.302;-6.362;2023-01-20T15:43:47;4.90;99.90
37788;DHT22;23627;53.302;-6.362;2023-01-20T16:02:03;4.80;99.90
37788;DHT22;23627;53.302;-6.362;2023-01-20T16:04:38;4.70;99.90
37788;DHT22;23627;53.302;-6.362;2023-01-20T16:07:03;4.70;99.90
37788;DHT22;23627;53.302;-6.362;2023-01-20T16:09:29;4.70;99.90
37788;DHT22;23627;53.302;-6.362;2023-01-20T16:11:58;4.70;99.90
37788;DHT22;23627;53.302;-6.362;2023-01-20T16:14:23;4.70;99.90
37788;DHT22;23627;53.302;-6.362;2023-01-20T16:16:49;4.70;99.90
37788;DHT22;23627;53.302;-6.362;2023-01-20T16:19:15;4.60;99.90
37788;DHT22;23627;53.302;-6.362;2023-01-20T16:21:41;4.50;99.90
37788;DHT22;23627;53.302;-6.362;2023-01-20T16:24:06;4.50;99.90
37788;DHT22;23627;53.302;-6.362;2023-01-20T16:26:32;4.50;99.90
37788;DHT22;23627;53.302;-6.362;2023-01-20T16:29:02;4.40;99.90
37788;DHT22;23627;53.302;-6.362;2023-01-20T16:31:36;4.40;99.90
37788;DHT22;23627;53.302;-6.362;2023-01-20T16:34:11;4.40;99.90
37788;DHT22;23627;53.302;-6.362;2023-01-20T16:36:37;4.30;99.90
37788;DHT22;23627;53.302;-6.362;2023-01-20T16:39:03;4.30;99.90
37788;DHT22;23627;53.302;-6.362;2023-01-20T16:41:28;4.20;99.90
37788;DHT22;23627;53.302;-6.362;2023-01-20T16:43:55;4.20;99.90
37788;DHT22;23627;53.302;-6.362;2023-01-20T16:48:46;4.20;99.90
37788;DHT22;23627;53.302;-6.362;2023-01-20T16:51:19;4.10;99.90
37788;DHT22;23627;53.302;-6.362;2023-01-20T16:53:45;4.10;99.90
37788;DHT22;23627;53.302;-6.362;2023-01-20T16:56:15;4.10;99.90
37788;DHT22;23627;53.302;-6.362;2023-01-20T16:58:41;4.00;99.90
37788;DHT22;23627;53.302;-6.362;2023-01-20T17:01:07;4.00;99.90
37788;DHT22;23627;53.302;-6.362;2023-01-20T17:03:42;4.00;99.90
37788;DHT22;23627;53.302;-6.362;2023-01-20T17:06:09;3.90;99.90
37788;DHT22;23627;53.302;-6.362;2023-01-20T17:08:34;3.90;99.90
37788;DHT22;23627;53.302;-6.362;2023-01-20T17:11:00;3.90;99.90
37788;DHT22;23627;53.302;-6.362;2023-01-20T17:13:25;3.90;99.90
37788;DHT22;23627;53.302;-6.362;2023-01-20T17:15:51;3.90;99.90
37788;DHT22;23627;53.302;-6.362;2023-01-20T17:18:16;3.90;99.90
37788;DHT22;23627;53.302;-6.362;2023-01-20T17:20:42;3.80;99.90
37788;DHT22;23627;53.302;-6.362;2023-01-20T17:23:08;3.80;99.90
37788;DHT22;23627;53.302;-6.362;2023-01-20T17:25:33;3.80;99.90
37788;DHT22;23627;53.302;-6.362;2023-01-20T17:27:59;3.80;99.90
37788;DHT22;23627;53.302;-6.362;2023-01-20T17:30:24;3.80;99.90
37788;DHT22;23627;53.302;-6.362;2023-01-20T17:32:50;3.80;99.90
37788;DHT22;23627;53.302;-6.362;2023-01-20T17:35:16;3.80;99.90
37788;DHT22;23627;53.302;-6.362;2023-01-20T17:37:41;3.80;99.90
37788;DHT22;23627;53.302;-6.362;2023-01-20T17:40:08;3.80;99.90
37788;DHT22;23627;53.302;-6.362;2023-01-20T17:42:34;3.80;99.90
37788;DHT22;23627;53.302;-6.362;2023-01-20T17:44:59;3.80;99.90
37788;DHT22;23627;53.302;-6.362;2023-01-20T17:47:31;3.80;99.90
37788;DHT22;23627;53.302;-6.362;2023-01-20T17:50:08;3.90;99.90
37788;DHT22;23627;53.302;-6.362;2023-01-20T17:52:34;3.90;99.90
37788;DHT22;23627;53.302;-6.362;2023-01-20T17:55:00;3.90;99.90
37788;DHT22;23627;53.302;-6.362;2023-01-20T17:57:25;3.90;99.90
37788;DHT22;23627;53.302;-6.362;2023-01-20T17:59:52;3.90;99.90
37788;DHT22;23627;53.302;-6.362;2023-01-20T18:02:17;3.90;99.90
37788;DHT22;23627;53.302;-6.362;2023-01-20T18:04:45;3.90;99.90
37788;DHT22;23627;53.302;-6.362;2023-01-20T18:07:10;3.90;99.90
37788;DHT22;23627;53.302;-6.362;2023-01-20T18:09:36;3.90;99.90
37788;DHT22;23627;53.302;-6.362;2023-01-20T18:12:01;3.90;99.90
37788;DHT22;23627;53.302;-6.362;2023-01-20T18:14:27;3.90;99.90
37788;DHT22;23627;53.302;-6.362;2023-01-20T18:16:53;3.90;99.90
37788;DHT22;23627;53.302;-6.362;2023-01-20T18:19:18;4.00;99.90
37788;DHT22;23627;53.302;-6.362;2023-01-20T18:21:44;4.00;99.90
37788;DHT22;23627;53.302;-6.362;2023-01-20T18:24:10;4.00;99.90
37788;DHT22;23627;53.302;-6.362;2023-01-20T18:26:37;4.00;99.90
37788;DHT22;23627;53.302;-6.362;2023-01-20T18:29:04;4.00;99.90
37788;DHT22;23627;53.302;-6.362;2023-01-20T18:31:30;4.00;99.90